createdAt,value
2019-05-26T00:01:37.361Z,10.60
2019-05-26T00:04:04.922Z,10.60
2019-05-26T00:06:33.962Z,10.60
2019-05-26T00:09:01.692Z,10.60
2019-05-26T00:11:29.653Z,10.50
2019-05-26T00:13:59.742Z,10.50
2019-05-26T00:16:27.819Z,10.40
2019-05-26T00:18:55.395Z,10.30
2019-05-26T00:21:22.964Z,10.30
2019-05-26T00:23:50.601Z,10.30
2019-05-26T00:26:18.209Z,10.30
2019-05-26T00:28:46.759Z,10.30
2019-05-26T00:31:14.734Z,10.20
2019-05-26T00:33:42.269Z,10.20
2019-05-26T00:36:09.855Z,10.20
2019-05-26T00:38:38.438Z,10.20
2019-05-26T00:41:06.204Z,10.10
2019-05-26T00:43:33.629Z,10.10
2019-05-26T00:46:01.142Z,10.10
2019-05-26T00:48:28.597Z,10.10
2019-05-26T00:50:56.239Z,10.10
2019-05-26T00:53:23.717Z,10.00
2019-05-26T00:55:51.254Z,10.10
2019-05-26T00:58:18.732Z,10.00
2019-05-26T01:01:04.564Z,10.00
2019-05-26T01:03:33.914Z,10.00
2019-05-26T01:06:01.596Z,10.00
2019-05-26T01:08:29.145Z,9.90
2019-05-26T01:10:56.757Z,9.90
2019-05-26T01:13:25.291Z,9.90
2019-05-26T01:15:52.923Z,9.90
2019-05-26T01:18:20.436Z,9.80
2019-05-26T01:20:48.044Z,9.80
2019-05-26T01:23:15.859Z,9.80
2019-05-26T01:25:43.438Z,9.70
2019-05-26T01:28:10.958Z,9.70
2019-05-26T01:30:38.792Z,9.60
2019-05-26T01:33:06.731Z,9.70
2019-05-26T01:35:38.252Z,9.60
2019-05-26T01:38:22.675Z,9.60
2019-05-26T01:40:37.813Z,9.60
2019-05-26T01:43:05.412Z,9.60
2019-05-26T01:45:32.869Z,9.50
2019-05-26T01:48:00.360Z,9.50
2019-05-26T01:50:27.970Z,9.50
2019-05-26T01:52:55.426Z,9.50
2019-05-26T01:55:22.982Z,9.50
2019-05-26T01:57:50.465Z,9.50
2019-05-26T02:00:18.134Z,9.50
2019-05-26T02:02:45.704Z,9.40
2019-05-26T02:05:13.377Z,9.40
2019-05-26T02:07:40.893Z,9.40
2019-05-26T02:10:08.690Z,9.40
2019-05-26T02:12:37.162Z,9.30
2019-05-26T02:15:06.230Z,9.30
2019-05-26T02:17:33.783Z,9.30
2019-05-26T02:20:01.303Z,9.20
2019-05-26T02:22:29.042Z,9.20
2019-05-26T02:24:56.686Z,9.20
2019-05-26T02:27:24.364Z,9.20
2019-05-26T02:29:51.903Z,9.20
2019-05-26T02:32:19.455Z,9.20
2019-05-26T02:34:47.208Z,9.20
2019-05-26T02:37:14.894Z,9.20
2019-05-26T02:39:42.446Z,9.20
2019-05-26T02:42:10.012Z,9.20
2019-05-26T02:44:37.672Z,9.20
2019-05-26T02:47:05.413Z,9.20
2019-05-26T02:49:32.935Z,9.20
2019-05-26T02:52:00.567Z,9.20
2019-05-26T02:54:28.123Z,9.10
2019-05-26T02:56:55.701Z,9.10
2019-05-26T02:59:23.199Z,9.10
2019-05-26T03:02:03.256Z,9.10
2019-05-26T03:04:20.119Z,9.10
2019-05-26T03:06:49.267Z,9.10
2019-05-26T03:09:23.212Z,9.10
2019-05-26T03:11:51.635Z,9.00
2019-05-26T03:14:20.166Z,9.00
2019-05-26T03:16:50.529Z,9.00
2019-05-26T03:19:19.017Z,8.90
2019-05-26T03:21:48.191Z,9.00
2019-05-26T03:24:18.068Z,8.90
2019-05-26T03:26:45.647Z,9.00
2019-05-26T03:29:13.336Z,9.00
2019-05-26T03:31:40.797Z,9.00
2019-05-26T03:34:08.377Z,9.00
2019-05-26T03:36:35.898Z,9.00
2019-05-26T03:39:04.978Z,9.00
2019-05-26T03:41:32.668Z,9.10
2019-05-26T03:44:00.119Z,9.10
2019-05-26T03:46:27.730Z,9.10
2019-05-26T03:48:55.194Z,9.20
2019-05-26T03:51:22.709Z,9.20
2019-05-26T03:53:50.148Z,9.30
2019-05-26T03:56:17.688Z,9.30
2019-05-26T03:58:45.290Z,9.30
2019-05-26T04:01:13.143Z,9.40
2019-05-26T04:03:40.807Z,9.40
2019-05-26T04:06:08.370Z,9.50
2019-05-26T04:08:35.903Z,9.50
2019-05-26T04:11:03.553Z,9.50
2019-05-26T04:13:31.162Z,9.60
2019-05-26T04:15:58.786Z,9.60
2019-05-26T04:18:26.259Z,9.60
2019-05-26T04:20:53.938Z,9.70
2019-05-26T04:23:21.707Z,9.70
2019-05-26T04:25:49.319Z,9.80
2019-05-26T04:28:17.114Z,9.80
2019-05-26T04:30:44.581Z,9.90
2019-05-26T04:33:12.182Z,9.90
2019-05-26T04:35:39.757Z,10.00
2019-05-26T04:38:07.480Z,10.00
2019-05-26T04:40:36.171Z,10.00
2019-05-26T04:43:03.680Z,9.90
2019-05-26T04:45:31.294Z,9.80
2019-05-26T04:47:58.843Z,9.80
2019-05-26T04:50:27.296Z,9.80
2019-05-26T04:53:06.169Z,9.80
2019-05-26T04:55:24.370Z,9.90
2019-05-26T04:57:51.857Z,9.90
2019-05-26T05:00:20.427Z,10.00
2019-05-26T05:02:48.113Z,10.10
2019-05-26T05:05:15.593Z,10.20
2019-05-26T05:07:43.079Z,10.30
2019-05-26T05:10:10.614Z,10.40
2019-05-26T05:12:38.182Z,10.50
2019-05-26T05:15:06.688Z,10.70
2019-05-26T05:17:34.247Z,10.80
2019-05-26T05:20:02.059Z,11.00
2019-05-26T05:22:29.729Z,11.10
2019-05-26T05:24:57.642Z,11.20
2019-05-26T05:27:25.296Z,11.30
2019-05-26T05:29:52.832Z,11.40
2019-05-26T05:32:20.433Z,11.60
2019-05-26T05:34:48.031Z,11.70
2019-05-26T05:37:15.732Z,11.90
2019-05-26T05:39:43.532Z,12.00
2019-05-26T05:42:11.196Z,12.10
2019-05-26T05:44:38.812Z,12.20
2019-05-26T05:47:06.403Z,12.40
2019-05-26T05:49:33.993Z,12.40
2019-05-26T05:52:01.487Z,12.60
2019-05-26T05:54:29.024Z,12.80
2019-05-26T05:56:56.551Z,12.90
2019-05-26T05:59:24.299Z,13.10
2019-05-26T06:01:51.880Z,13.20
2019-05-26T06:04:19.524Z,13.30
2019-05-26T06:06:47.402Z,13.50
2019-05-26T06:09:15.082Z,13.60
2019-05-26T06:11:42.656Z,13.70
2019-05-26T06:14:10.312Z,13.80
2019-05-26T06:16:39.030Z,13.90
2019-05-26T06:19:06.645Z,14.00
2019-05-26T06:21:34.248Z,14.20
2019-05-26T06:24:01.904Z,14.30
2019-05-26T06:26:29.610Z,14.40
2019-05-26T06:28:57.216Z,14.50
2019-05-26T06:31:24.914Z,14.70
2019-05-26T06:33:52.513Z,14.80
2019-05-26T06:36:20.078Z,14.90
2019-05-26T06:38:47.750Z,15.10
2019-05-26T06:41:31.883Z,15.20
2019-05-26T06:43:44.800Z,15.40
2019-05-26T06:46:12.342Z,15.50
2019-05-26T06:48:39.917Z,15.70
2019-05-26T06:51:07.461Z,15.90
2019-05-26T06:53:37.570Z,16.10
2019-05-26T06:56:04.714Z,16.20
2019-05-26T06:58:32.350Z,16.40
2019-05-26T07:01:01.365Z,16.50
2019-05-26T07:03:29.287Z,16.70
2019-05-26T07:05:56.863Z,16.80
2019-05-26T07:08:24.899Z,17.00
2019-05-26T07:10:52.452Z,17.10
2019-05-26T07:13:20.016Z,17.30
2019-05-26T07:15:48.656Z,17.30
2019-05-26T07:18:16.235Z,17.40
2019-05-26T07:20:43.907Z,17.60
2019-05-26T07:23:11.609Z,17.60
2019-05-26T07:25:39.224Z,17.50
2019-05-26T07:28:06.681Z,17.60
2019-05-26T07:30:34.423Z,17.80
2019-05-26T07:33:01.934Z,18.00
2019-05-26T07:35:32.706Z,18.10
2019-05-26T07:37:58.992Z,18.30
2019-05-26T07:40:26.487Z,18.40
2019-05-26T07:42:55.173Z,18.50
2019-05-26T07:45:22.652Z,18.50
2019-05-26T07:47:50.143Z,18.70
2019-05-26T07:50:17.621Z,18.90
2019-05-26T07:52:45.311Z,19.00
2019-05-26T07:55:14.550Z,19.10
2019-05-26T07:57:42.362Z,19.40
2019-05-26T08:00:10.390Z,19.60
2019-05-26T08:02:38.037Z,19.50
2019-05-26T08:05:05.697Z,19.50
2019-05-26T08:07:33.223Z,19.70
2019-05-26T08:10:00.796Z,19.90
2019-05-26T08:12:30.548Z,20.00
2019-05-26T08:14:57.879Z,20.20
2019-05-26T08:17:25.382Z,20.40
2019-05-26T08:19:53.045Z,20.50
2019-05-26T08:22:20.570Z,20.60
2019-05-26T08:24:48.062Z,20.60
2019-05-26T08:27:15.622Z,20.70
2019-05-26T08:29:43.241Z,20.70
2019-05-26T08:32:10.887Z,20.90
2019-05-26T08:34:38.466Z,21.00
2019-05-26T08:37:05.988Z,21.10
2019-05-26T08:39:33.860Z,21.20
2019-05-26T08:42:01.419Z,21.30
2019-05-26T08:44:28.889Z,21.30
2019-05-26T08:46:56.434Z,21.40
2019-05-26T08:49:25.184Z,21.50
2019-05-26T08:51:52.764Z,21.60
2019-05-26T08:54:20.284Z,21.80
2019-05-26T08:56:47.801Z,21.90
2019-05-26T08:59:28.917Z,22.00
2019-05-26T09:01:56.626Z,22.20
2019-05-26T09:04:24.099Z,22.30
2019-05-26T09:06:51.719Z,22.30
2019-05-26T09:09:19.078Z,22.20
2019-05-26T09:11:46.618Z,22.20
2019-05-26T09:14:14.130Z,22.30
2019-05-26T09:16:41.829Z,22.40
2019-05-26T09:19:09.461Z,22.40
2019-05-26T09:21:36.942Z,22.40
2019-05-26T09:24:04.436Z,22.50
2019-05-26T09:26:32.519Z,22.60
2019-05-26T09:29:00.103Z,22.70
2019-05-26T09:31:27.690Z,22.90
2019-05-26T09:33:55.232Z,22.80
2019-05-26T09:36:22.870Z,22.90
2019-05-26T09:38:50.366Z,22.90
2019-05-26T09:41:17.893Z,23.00
2019-05-26T09:43:45.381Z,23.00
2019-05-26T09:46:12.976Z,23.10
2019-05-26T09:48:41.577Z,23.20
2019-05-26T09:51:09.452Z,22.80
2019-05-26T09:53:37.639Z,23.00
2019-05-26T09:56:05.200Z,23.30
2019-05-26T09:58:32.787Z,23.60
2019-05-26T10:01:00.280Z,24.00
2019-05-26T10:03:28.434Z,24.20
2019-05-26T10:05:55.893Z,24.50
2019-05-26T10:08:23.448Z,24.50
2019-05-26T10:10:51.005Z,24.40
2019-05-26T10:13:30.888Z,24.20
2019-05-26T10:15:48.025Z,24.20
2019-05-26T10:18:15.516Z,24.30
2019-05-26T10:20:43.042Z,24.60
2019-05-26T10:23:10.526Z,24.80
2019-05-26T10:25:38.006Z,25.10
2019-05-26T10:28:05.853Z,25.40
2019-05-26T10:30:33.322Z,25.50
2019-05-26T10:33:01.001Z,25.80
2019-05-26T10:35:28.843Z,26.10
2019-05-26T10:37:56.338Z,26.20
2019-05-26T10:40:23.841Z,26.20
2019-05-26T10:42:51.319Z,26.10
2019-05-26T10:45:18.870Z,25.90
2019-05-26T10:47:46.397Z,26.20
2019-05-26T10:50:15.425Z,26.50
2019-05-26T10:52:43.037Z,26.70
2019-05-26T10:55:10.829Z,26.80
2019-05-26T10:57:38.336Z,26.70
2019-05-26T11:00:06.573Z,26.70
2019-05-26T11:02:34.343Z,27.10
2019-05-26T11:05:01.916Z,27.20
2019-05-26T11:07:29.546Z,27.30
2019-05-26T11:09:57.095Z,27.60
2019-05-26T11:12:24.584Z,27.50
2019-05-26T11:14:52.168Z,27.40
2019-05-26T11:17:19.774Z,27.40
2019-05-26T11:19:47.341Z,27.60
2019-05-26T11:22:14.794Z,27.90
2019-05-26T11:24:42.392Z,27.90
2019-05-26T11:27:12.696Z,27.90
2019-05-26T11:29:39.470Z,27.60
2019-05-26T11:32:07.079Z,27.10
2019-05-26T11:34:34.666Z,27.00
2019-05-26T11:37:03.174Z,27.00
2019-05-26T11:39:30.791Z,27.20
2019-05-26T11:42:12.202Z,27.30
2019-05-26T11:44:27.714Z,27.60
2019-05-26T11:46:55.231Z,28.00
2019-05-26T11:49:22.817Z,28.10
2019-05-26T11:51:50.327Z,28.10
2019-05-26T11:54:18.497Z,28.20
2019-05-26T11:56:46.219Z,28.60
2019-05-26T11:59:13.822Z,29.00
2019-05-26T12:01:41.708Z,29.00
2019-05-26T12:04:09.310Z,29.10
2019-05-26T12:06:36.841Z,29.10
2019-05-26T12:09:06.971Z,29.00
2019-05-26T12:11:34.533Z,28.80
2019-05-26T12:14:02.082Z,28.50
2019-05-26T12:16:29.580Z,28.10
2019-05-26T12:18:57.066Z,28.20
2019-05-26T12:21:24.624Z,27.80
2019-05-26T12:23:54.892Z,27.70
2019-05-26T12:26:21.564Z,27.70
2019-05-26T12:28:49.305Z,27.80
2019-05-26T12:31:16.869Z,27.80
2019-05-26T12:33:44.355Z,27.90
2019-05-26T12:36:11.991Z,28.10
2019-05-26T12:38:50.161Z,28.30
2019-05-26T12:41:19.188Z,28.20
2019-05-26T12:43:46.689Z,28.10
2019-05-26T12:46:14.533Z,28.20
2019-05-26T12:48:42.254Z,28.10
2019-05-26T12:51:09.779Z,28.00
2019-05-26T12:53:37.526Z,27.90
2019-05-26T12:56:05.089Z,27.80
2019-05-26T12:58:32.618Z,27.70
2019-05-26T13:01:00.286Z,27.60
2019-05-26T13:03:41.174Z,27.50
2019-05-26T13:06:09.529Z,27.50
2019-05-26T13:08:37.114Z,27.50
2019-05-26T13:11:04.658Z,27.40
2019-05-26T13:13:32.242Z,27.40
2019-05-26T13:15:59.933Z,27.50
2019-05-26T13:18:27.822Z,27.50
2019-05-26T13:20:55.319Z,27.40
2019-05-26T13:23:22.854Z,27.50
2019-05-26T13:25:50.337Z,27.50
2019-05-26T13:28:17.991Z,27.60
2019-05-26T13:30:45.502Z,27.60
2019-05-26T13:33:13.255Z,27.60
2019-05-26T13:35:40.828Z,27.50
2019-05-26T13:38:08.526Z,27.60
2019-05-26T13:40:36.129Z,27.60
2019-05-26T13:43:03.863Z,27.50
2019-05-26T13:45:33.941Z,27.40
2019-05-26T13:48:00.875Z,27.30
2019-05-26T13:50:28.386Z,26.80
2019-05-26T13:52:56.209Z,26.70
2019-05-26T13:55:24.125Z,26.60
2019-05-26T13:57:51.806Z,26.50
2019-05-26T14:00:22.382Z,26.50
2019-05-26T14:02:50.514Z,26.50
2019-05-26T14:05:18.211Z,26.60
2019-05-26T14:07:45.959Z,26.70
2019-05-26T14:10:15.564Z,26.70
2019-05-26T14:12:43.180Z,26.70
2019-05-26T14:15:10.978Z,26.70
2019-05-26T14:17:38.516Z,26.70
2019-05-26T14:20:06.759Z,26.70
2019-05-26T14:22:34.196Z,26.50
2019-05-26T14:25:01.656Z,26.40
2019-05-26T14:27:29.095Z,26.40
2019-05-26T14:29:56.547Z,26.30
2019-05-26T14:32:24.394Z,26.30
2019-05-26T14:34:51.816Z,26.30
2019-05-26T14:37:19.319Z,26.40
2019-05-26T14:39:49.875Z,26.40
2019-05-26T14:42:16.173Z,26.40
2019-05-26T14:44:43.626Z,26.30
2019-05-26T14:47:11.084Z,26.40
2019-05-26T14:49:38.564Z,26.30
2019-05-26T14:52:06.075Z,26.20
2019-05-26T14:54:33.614Z,26.10
2019-05-26T14:57:01.223Z,25.90
2019-05-26T14:59:28.718Z,25.90
2019-05-26T15:01:57.969Z,25.80
2019-05-26T15:04:25.291Z,25.70
2019-05-26T15:06:52.736Z,25.70
2019-05-26T15:09:25.285Z,25.80
2019-05-26T15:11:49.562Z,25.70
2019-05-26T15:14:17.086Z,25.80
2019-05-26T15:16:44.544Z,25.70
2019-05-26T15:19:12.062Z,25.60
2019-05-26T15:21:39.580Z,25.50
2019-05-26T15:24:07.076Z,25.40
2019-05-26T15:26:34.549Z,25.30
2019-05-26T15:29:02.022Z,25.30
2019-05-26T15:31:29.450Z,25.10
2019-05-26T15:33:56.955Z,25.00
2019-05-26T15:36:24.410Z,25.10
2019-05-26T15:38:53.056Z,25.00
2019-05-26T15:41:20.604Z,24.90
2019-05-26T15:43:48.117Z,24.80
2019-05-26T15:46:24.858Z,24.90
2019-05-26T15:48:44.986Z,24.80
2019-05-26T15:51:13.665Z,24.80
2019-05-26T15:53:41.126Z,24.70
2019-05-26T15:56:08.587Z,24.80
2019-05-26T15:58:36.032Z,24.80
2019-05-26T16:01:03.443Z,24.80
2019-05-26T16:03:30.898Z,24.90
2019-05-26T16:05:58.419Z,24.90
2019-05-26T16:08:25.922Z,24.90
2019-05-26T16:10:53.397Z,24.90
2019-05-26T16:13:21.103Z,24.90
2019-05-26T16:15:49.734Z,24.80
2019-05-26T16:18:17.430Z,24.70
2019-05-26T16:20:44.850Z,24.60
2019-05-26T16:23:12.478Z,24.40
2019-05-26T16:25:40.294Z,24.50
2019-05-26T16:28:07.704Z,24.40
2019-05-26T16:30:35.184Z,24.30
2019-05-26T16:33:02.970Z,24.30
2019-05-26T16:35:30.642Z,24.20
2019-05-26T16:37:58.189Z,24.10
2019-05-26T16:40:25.662Z,24.10
2019-05-26T16:42:53.123Z,24.00
2019-05-26T16:45:20.713Z,24.00
2019-05-26T16:47:48.216Z,23.90
2019-05-26T16:50:15.689Z,23.90
2019-05-26T16:52:44.462Z,23.80
2019-05-26T16:55:11.987Z,23.80
2019-05-26T16:57:39.573Z,23.80
2019-05-26T17:00:07.431Z,23.80
2019-05-26T17:02:35.089Z,23.70
2019-05-26T17:05:02.739Z,23.70
2019-05-26T17:07:31.385Z,23.70
2019-05-26T17:09:58.971Z,23.70
2019-05-26T17:12:26.864Z,23.70
2019-05-26T17:14:54.421Z,23.70
2019-05-26T17:17:21.970Z,23.60
2019-05-26T17:19:52.631Z,23.60
2019-05-26T17:22:18.807Z,23.50
2019-05-26T17:24:46.230Z,23.50
2019-05-26T17:27:13.883Z,23.50
2019-05-26T17:29:41.581Z,23.40
2019-05-26T17:32:09.126Z,23.30
2019-05-26T17:34:36.591Z,23.30
2019-05-26T17:37:04.214Z,23.20
2019-05-26T17:39:31.758Z,23.10
2019-05-26T17:41:59.434Z,23.00
2019-05-26T17:44:26.977Z,22.90
2019-05-26T17:46:58.371Z,22.80
2019-05-26T17:49:30.134Z,22.70
2019-05-26T17:51:59.440Z,22.50
2019-05-26T17:54:26.830Z,22.30
2019-05-26T17:56:54.319Z,22.20
2019-05-26T17:59:21.840Z,22.10
2019-05-26T18:01:49.433Z,22.00
2019-05-26T18:04:16.972Z,21.90
2019-05-26T18:06:44.629Z,21.80
2019-05-26T18:09:12.107Z,21.60
2019-05-26T18:11:39.739Z,21.50
2019-05-26T18:14:07.237Z,21.50
2019-05-26T18:16:34.889Z,21.40
2019-05-26T18:19:02.462Z,21.30
2019-05-26T18:21:29.916Z,21.30
2019-05-26T18:23:57.360Z,21.20
2019-05-26T18:26:24.917Z,21.10
2019-05-26T18:28:52.550Z,21.10
2019-05-26T18:31:20.044Z,21.00
2019-05-26T18:33:47.589Z,21.00
2019-05-26T18:36:15.116Z,20.90
2019-05-26T18:38:42.606Z,20.90
2019-05-26T18:41:10.070Z,20.80
2019-05-26T18:43:37.703Z,20.70
2019-05-26T18:46:05.228Z,20.60
2019-05-26T18:48:32.688Z,20.60
2019-05-26T18:51:00.204Z,20.50
2019-05-26T18:53:29.782Z,20.40
2019-05-26T18:55:57.032Z,20.30
2019-05-26T18:58:24.710Z,20.20
2019-05-26T19:00:52.269Z,20.10
2019-05-26T19:03:20.836Z,20.00
2019-05-26T19:05:49.525Z,19.90
2019-05-26T19:08:17.015Z,19.80
2019-05-26T19:10:44.591Z,19.70
2019-05-26T19:13:12.185Z,19.60
2019-05-26T19:15:39.845Z,19.50
2019-05-26T19:18:19.236Z,19.40
2019-05-26T19:20:36.859Z,19.30
2019-05-26T19:23:05.425Z,19.20
2019-05-26T19:25:33.239Z,19.10
2019-05-26T19:28:01.051Z,19.00
2019-05-26T19:30:28.542Z,18.90
2019-05-26T19:32:56.090Z,18.80
2019-05-26T19:35:23.693Z,18.70
2019-05-26T19:37:51.189Z,18.60
2019-05-26T19:40:19.077Z,18.50
2019-05-26T19:42:46.722Z,18.40
2019-05-26T19:45:14.201Z,18.30
2019-05-26T19:47:41.753Z,18.20
2019-05-26T19:50:09.799Z,18.10
2019-05-26T19:52:37.460Z,18.10
2019-05-26T19:55:05.151Z,18.00
2019-05-26T19:57:32.664Z,17.90
2019-05-26T20:00:00.372Z,17.80
2019-05-26T20:02:27.830Z,17.70
2019-05-26T20:04:55.390Z,17.60
2019-05-26T20:07:22.974Z,17.50
2019-05-26T20:09:50.482Z,17.30
2019-05-26T20:12:18.078Z,17.30
2019-05-26T20:14:45.660Z,17.20
2019-05-26T20:17:13.293Z,17.10
2019-05-26T20:19:40.834Z,16.90
2019-05-26T20:22:08.381Z,16.90
2019-05-26T20:24:36.020Z,16.80
2019-05-26T20:27:03.687Z,16.70
2019-05-26T20:29:31.098Z,16.60
2019-05-26T20:31:58.582Z,16.60
2019-05-26T20:34:26.065Z,16.50
2019-05-26T20:36:53.600Z,16.40
2019-05-26T20:39:21.095Z,16.30
2019-05-26T20:41:48.642Z,16.30
2019-05-26T20:44:16.165Z,16.20
2019-05-26T20:46:43.749Z,16.10
2019-05-26T20:49:11.279Z,16.10
2019-05-26T20:51:38.754Z,16.00
2019-05-26T20:54:06.250Z,16.00
2019-05-26T20:56:33.743Z,15.90
2019-05-26T20:59:01.265Z,15.80
2019-05-26T21:01:28.986Z,15.80
2019-05-26T21:03:56.483Z,15.70
2019-05-26T21:06:23.998Z,15.70
2019-05-26T21:08:51.469Z,15.60
2019-05-26T21:11:19.201Z,15.60
2019-05-26T21:13:46.733Z,15.50
2019-05-26T21:16:17.072Z,15.50
2019-05-26T21:18:44.634Z,15.40
2019-05-26T21:21:12.237Z,15.40
2019-05-26T21:23:39.841Z,15.30
2019-05-26T21:26:07.286Z,15.30
2019-05-26T21:28:34.756Z,15.20
2019-05-26T21:31:02.394Z,15.10
2019-05-26T21:33:29.905Z,15.00
2019-05-26T21:35:57.394Z,15.00
2019-05-26T21:38:24.846Z,14.90
2019-05-26T21:40:53.427Z,14.90
2019-05-26T21:43:20.936Z,14.80
2019-05-26T21:45:49.471Z,14.70
2019-05-26T21:48:17.149Z,14.70
2019-05-26T21:50:44.702Z,14.70
2019-05-26T21:53:12.346Z,14.70
2019-05-26T21:55:39.894Z,14.60
2019-05-26T21:58:07.309Z,14.60
2019-05-26T22:00:45.011Z,14.50
2019-05-26T22:03:14.473Z,14.50
2019-05-26T22:05:41.948Z,14.50
2019-05-26T22:08:09.398Z,14.50
2019-05-26T22:10:37.003Z,14.40
2019-05-26T22:13:04.622Z,14.40
2019-05-26T22:15:32.112Z,14.40
2019-05-26T22:17:59.560Z,14.30
2019-05-26T22:20:27.052Z,14.30
2019-05-26T22:22:54.539Z,14.20
2019-05-26T22:25:22.036Z,14.20
2019-05-26T22:27:49.700Z,14.20
2019-05-26T22:30:17.250Z,14.10
2019-05-26T22:32:44.844Z,14.10
2019-05-26T22:35:12.325Z,14.00
2019-05-26T22:37:39.790Z,14.00
2019-05-26T22:40:07.519Z,13.90
2019-05-26T22:42:35.044Z,13.90
2019-05-26T22:45:05.701Z,13.80
2019-05-26T22:47:33.375Z,13.80
2019-05-26T22:50:00.895Z,13.80
2019-05-26T22:52:28.340Z,13.70
2019-05-26T22:54:55.825Z,13.70
2019-05-26T22:57:23.251Z,13.60
2019-05-26T22:59:50.748Z,13.60
2019-05-26T23:02:18.259Z,13.60
2019-05-26T23:04:45.778Z,13.50
2019-05-26T23:07:13.209Z,13.50
2019-05-26T23:09:40.770Z,13.50
2019-05-26T23:12:08.212Z,13.40
2019-05-26T23:14:35.701Z,13.40
2019-05-26T23:17:03.287Z,13.30
2019-05-26T23:19:31.605Z,13.30
2019-05-26T23:21:59.116Z,13.30
2019-05-26T23:24:26.561Z,13.20
2019-05-26T23:26:54.080Z,13.20
2019-05-26T23:29:21.544Z,13.10
2019-05-26T23:31:49.238Z,13.10
2019-05-26T23:34:17.152Z,13.00
2019-05-26T23:36:44.659Z,13.00
2019-05-26T23:39:12.272Z,12.90
2019-05-26T23:41:40.933Z,12.90
2019-05-26T23:44:08.455Z,12.90
2019-05-26T23:46:35.947Z,12.80
2019-05-26T23:49:03.495Z,12.80
2019-05-26T23:51:30.915Z,12.80
2019-05-26T23:53:58.380Z,12.70
2019-05-26T23:56:25.896Z,12.70
2019-05-26T23:58:53.361Z,12.70
